Ticonderoga, New York
Current Conditions -  °F | °C
As of 11:35 PM on Saturday 25 Oct 2014 (Local Time) from K6B0 Reporting Station
Overcast Overcast  
Wind Chill: 50°   Ceiling: 7500
Heat Index: 50°   Visibility: 10mi
Dew Point: 50°   Wind: 0mph
Humidity: 99%   Direction: NA
Pressure: 29.47"   Gusts: NA
Location:  43.85°N, 73.42°W
Report Text: K6B0 260335Z AUTO 00000KT 10SM BKN075 OVC085 10/10 A2947 RMK AO2 T01010100
Loading
Personal Weather Stations






























Interactive Weather Map
Tropical Storm Tracking
New forecast layout! Learn more

10-Day Weather Forecast

Advertisements
Track Severe Weather on mobile